createdAt,value
2023-12-30T00:01:37.609Z,38.88
2023-12-30T00:04:39.716Z,35.70
2023-12-30T00:07:41.800Z,33.97
2023-12-30T00:10:43.840Z,35.38
2023-12-30T00:16:48.489Z,42.03
2023-12-30T00:19:50.485Z,37.50
2023-12-30T00:22:52.657Z,38.08
2023-12-30T00:25:54.722Z,35.90
2023-12-30T00:28:59.453Z,35.92
2023-12-30T00:32:01.500Z,37.00
2023-12-30T00:35:03.728Z,36.13
2023-12-30T00:38:06.035Z,36.85
2023-12-30T00:41:08.053Z,37.30
2023-12-30T00:44:10.122Z,37.92
2023-12-30T00:47:13.049Z,42.10
2023-12-30T00:50:15.929Z,42.00
2023-12-30T00:53:17.987Z,41.70
2023-12-30T00:56:20.313Z,43.08
2023-12-30T00:59:22.719Z,40.05
2023-12-30T01:02:24.780Z,40.75
2023-12-30T01:05:27.812Z,41.88
2023-12-30T01:08:32.950Z,38.83
2023-12-30T01:11:35.110Z,40.88
2023-12-30T01:14:37.188Z,44.47
2023-12-30T01:17:40.378Z,44.35
2023-12-30T01:20:42.548Z,43.22
2023-12-30T01:23:44.733Z,44.42
2023-12-30T01:26:46.757Z,42.20
2023-12-30T01:29:48.946Z,41.90
2023-12-30T01:32:51.205Z,42.35
2023-12-30T01:35:53.323Z,42.65
2023-12-30T01:38:55.368Z,46.60
2023-12-30T01:41:57.662Z,44.60
2023-12-30T01:44:59.739Z,43.70
2023-12-30T01:48:02.155Z,41.63
2023-12-30T01:51:05.797Z,42.10
2023-12-30T01:54:10.163Z,40.90
2023-12-30T01:57:12.731Z,44.75
2023-12-30T02:00:21.647Z,43.47
2023-12-30T02:03:24.290Z,42.03
2023-12-30T02:06:26.452Z,44.53
2023-12-30T02:09:28.533Z,44.10
2023-12-30T02:12:30.560Z,45.97
2023-12-30T02:15:33.109Z,42.65
2023-12-30T02:18:35.540Z,43.85
2023-12-30T02:21:37.728Z,42.95
2023-12-30T02:24:39.742Z,42.83
2023-12-30T02:27:43.664Z,44.75
2023-12-30T02:30:45.850Z,45.00
2023-12-30T02:33:48.017Z,46.42
2023-12-30T02:36:50.069Z,47.90
2023-12-30T02:39:52.342Z,45.90
2023-12-30T02:42:55.078Z,45.80
2023-12-30T02:45:57.180Z,46.47
2023-12-30T02:49:01.742Z,48.03
2023-12-30T02:52:04.099Z,48.45
2023-12-30T02:55:07.379Z,44.40
2023-12-30T02:58:09.790Z,48.53
2023-12-30T03:01:12.408Z,47.10
2023-12-30T03:04:14.924Z,45.63
2023-12-30T03:07:16.996Z,43.45
2023-12-30T03:10:19.686Z,44.70
2023-12-30T03:13:21.734Z,43.90
2023-12-30T03:16:23.914Z,44.80
2023-12-30T03:19:25.983Z,44.17
2023-12-30T03:22:28.214Z,44.10
2023-12-30T03:25:32.774Z,45.92
2023-12-30T03:28:35.008Z,46.40
2023-12-30T03:31:37.720Z,43.50
2023-12-30T03:34:43.033Z,43.90
2023-12-30T03:37:45.131Z,45.58
2023-12-30T03:40:47.148Z,45.30
2023-12-30T03:43:49.973Z,44.88
2023-12-30T03:46:54.431Z,45.80
2023-12-30T03:49:56.498Z,48.25
2023-12-30T03:52:58.587Z,48.80
2023-12-30T03:56:01.325Z,49.35
2023-12-30T03:59:03.387Z,46.85
2023-12-30T04:02:05.816Z,46.60
2023-12-30T04:05:08.541Z,49.40
2023-12-30T04:08:10.887Z,50.15
2023-12-30T04:11:12.980Z,48.83
2023-12-30T04:14:15.160Z,52.80
2023-12-30T04:17:19.661Z,51.70
2023-12-30T04:20:21.729Z,52.28
2023-12-30T04:23:23.942Z,49.75
2023-12-30T04:26:26.197Z,50.65
2023-12-30T04:29:28.450Z,49.50
2023-12-30T04:32:30.503Z,52.25
2023-12-30T04:35:33.038Z,50.10
2023-12-30T04:38:35.078Z,46.70
2023-12-30T04:41:37.364Z,48.65
2023-12-30T04:44:39.466Z,50.00
2023-12-30T04:47:42.748Z,46.03
2023-12-30T04:50:44.869Z,45.35
2023-12-30T04:56:50.843Z,48.28
2023-12-30T04:59:52.951Z,49.45
2023-12-30T05:02:55.227Z,45.70
2023-12-30T05:05:57.533Z,49.97
2023-12-30T05:08:59.937Z,49.22
2023-12-30T05:12:02.299Z,48.90
2023-12-30T05:15:05.244Z,46.05
2023-12-30T05:18:15.211Z,46.85
2023-12-30T05:21:26.279Z,45.38
2023-12-30T05:24:29.000Z,45.95
2023-12-30T05:27:33.814Z,44.90
2023-12-30T05:30:39.537Z,45.58
2023-12-30T05:33:42.114Z,44.83
2023-12-30T05:36:44.668Z,43.72
2023-12-30T05:39:46.971Z,44.42
2023-12-30T05:42:55.783Z,45.45
2023-12-30T05:49:00.227Z,47.10
2023-12-30T05:52:06.380Z,43.78
2023-12-30T05:55:09.322Z,44.85
2023-12-30T05:58:12.193Z,42.80
2023-12-30T06:01:14.735Z,42.30
2023-12-30T06:04:22.067Z,42.25
2023-12-30T06:07:33.154Z,42.45
2023-12-30T06:10:35.679Z,42.40
2023-12-30T06:13:37.974Z,40.85
2023-12-30T06:16:40.424Z,44.42
2023-12-30T06:19:42.511Z,44.13
2023-12-30T06:22:44.939Z,44.15
2023-12-30T06:25:47.064Z,41.38
2023-12-30T06:28:49.702Z,44.10
2023-12-30T06:31:52.131Z,43.45
2023-12-30T06:34:54.923Z,40.53
2023-12-30T06:37:57.035Z,40.15
2023-12-30T06:40:59.087Z,41.95
2023-12-30T06:44:01.224Z,42.38
2023-12-30T06:47:03.314Z,40.60
2023-12-30T06:50:06.812Z,43.50
2023-12-30T06:53:08.949Z,41.38
2023-12-30T06:56:13.764Z,40.20
2023-12-30T06:59:16.833Z,39.92
2023-12-30T07:02:19.090Z,40.50
2023-12-30T07:05:21.613Z,39.53
2023-12-30T07:08:23.820Z,41.95
2023-12-30T07:11:26.099Z,44.40
2023-12-30T07:14:28.527Z,42.35
2023-12-30T07:17:30.864Z,40.00
2023-12-30T07:20:33.110Z,41.17
2023-12-30T07:23:35.407Z,39.65
2023-12-30T07:26:39.939Z,41.05
2023-12-30T07:29:42.677Z,40.58
2023-12-30T07:32:44.817Z,43.70
2023-12-30T07:35:46.945Z,43.72
2023-12-30T07:38:49.006Z,42.53
2023-12-30T07:41:50.995Z,41.42
2023-12-30T07:44:54.196Z,41.30
2023-12-30T07:47:56.822Z,40.45
2023-12-30T07:50:59.721Z,41.28
2023-12-30T07:54:02.574Z,41.60
2023-12-30T07:57:06.209Z,40.60
2023-12-30T08:00:12.834Z,43.90
2023-12-30T08:03:16.260Z,42.92
2023-12-30T08:06:19.314Z,42.42
2023-12-30T08:09:22.627Z,42.70
2023-12-30T08:12:26.252Z,40.38
2023-12-30T08:15:29.696Z,40.28
2023-12-30T08:18:32.666Z,38.75
2023-12-30T08:21:35.642Z,40.03
2023-12-30T08:24:39.024Z,38.05
2023-12-30T08:27:41.902Z,39.67
2023-12-30T08:30:44.993Z,40.40
2023-12-30T08:33:49.817Z,38.95
2023-12-30T08:36:52.473Z,38.08
2023-12-30T08:39:55.389Z,37.35
2023-12-30T08:42:57.649Z,39.33
2023-12-30T08:46:00.134Z,35.70
2023-12-30T08:52:06.470Z,41.08
2023-12-30T08:55:10.878Z,40.22
2023-12-30T08:58:13.839Z,40.83
2023-12-30T09:01:16.117Z,38.63
2023-12-30T09:04:19.483Z,33.58
2023-12-30T09:07:21.715Z,33.67
2023-12-30T09:10:24.101Z,34.00
2023-12-30T09:13:26.239Z,32.67
2023-12-30T09:16:28.414Z,28.30
2023-12-30T09:19:30.710Z,22.08
2023-12-30T09:22:33.323Z,20.10
2023-12-30T09:28:38.175Z,16.40
2023-12-30T09:31:40.777Z,7.78
2023-12-30T09:34:44.377Z,4.28
2023-12-30T09:37:46.874Z,2.47
2023-12-30T09:40:49.075Z,1.83
2023-12-30T09:46:54.627Z,3.80
2023-12-30T09:49:57.302Z,4.68
2023-12-30T09:52:59.629Z,2.85
2023-12-30T09:56:03.416Z,1.77
2023-12-30T09:59:05.732Z,1.77
2023-12-30T10:05:12.456Z,2.28
2023-12-30T10:08:15.600Z,2.47
2023-12-30T10:11:18.544Z,2.95
2023-12-30T10:14:20.972Z,5.22
2023-12-30T10:17:23.442Z,4.55
2023-12-30T10:20:26.211Z,4.63
2023-12-30T10:23:28.886Z,3.42
2023-12-30T10:26:31.891Z,3.92
2023-12-30T10:29:46.081Z,1.88
2023-12-30T10:32:53.421Z,2.10
2023-12-30T10:35:56.706Z,1.50
2023-12-30T10:39:01.878Z,1.63
2023-12-30T10:42:04.517Z,1.50
2023-12-30T10:45:07.197Z,1.38
2023-12-30T10:48:09.980Z,3.08
2023-12-30T10:51:17.692Z,4.85
2023-12-30T10:54:29.133Z,2.90
2023-12-30T10:57:36.579Z,4.07
2023-12-30T11:00:43.748Z,2.60
2023-12-30T11:03:46.837Z,2.67
2023-12-30T11:06:59.131Z,1.90
2023-12-30T11:10:02.782Z,1.98
2023-12-30T11:13:09.710Z,3.00
2023-12-30T11:16:20.817Z,1.15
2023-12-30T11:19:34.562Z,1.75
2023-12-30T11:22:37.872Z,2.10
2023-12-30T11:25:53.397Z,1.42
2023-12-30T11:28:59.712Z,1.02
2023-12-30T11:32:03.743Z,1.50
2023-12-30T11:35:12.637Z,1.55
2023-12-30T11:38:22.016Z,1.45
2023-12-30T11:41:29.470Z,2.33
2023-12-30T11:44:36.869Z,1.85
2023-12-30T11:47:41.098Z,2.70
2023-12-30T12:03:27.448Z,3.72
2023-12-30T12:06:31.222Z,2.88
2023-12-30T12:09:34.106Z,2.85
2023-12-30T12:12:43.806Z,5.07
2023-12-30T12:15:47.267Z,5.43
2023-12-30T12:18:51.407Z,6.07
2023-12-30T12:22:01.409Z,5.47
2023-12-30T12:25:05.010Z,7.15
2023-12-30T12:28:14.869Z,5.82
2023-12-30T12:31:21.166Z,6.85
2023-12-30T12:34:27.630Z,7.20
2023-12-30T12:37:31.933Z,8.35
2023-12-30T12:40:35.830Z,6.15
2023-12-30T12:43:40.899Z,6.47
2023-12-30T12:46:47.139Z,6.10
2023-12-30T12:49:50.834Z,5.45
2023-12-30T12:52:53.996Z,5.25
2023-12-30T12:55:57.769Z,6.45
2023-12-30T12:59:01.804Z,9.05
2023-12-30T13:02:05.386Z,8.57
2023-12-30T13:05:09.134Z,8.23
2023-12-30T13:08:12.811Z,6.78
2023-12-30T13:11:16.182Z,10.13
2023-12-30T13:14:22.676Z,10.15
2023-12-30T13:17:30.225Z,12.77
2023-12-30T13:20:33.677Z,13.30
2023-12-30T13:23:37.378Z,13.52
2023-12-30T13:26:41.019Z,13.23
2023-12-30T13:29:50.651Z,13.85
2023-12-30T13:32:54.460Z,11.63
2023-12-30T13:35:58.212Z,13.23
2023-12-30T13:39:02.436Z,12.75
2023-12-30T13:42:09.583Z,13.20
2023-12-30T13:45:14.007Z,12.40
2023-12-30T13:48:23.012Z,11.70
2023-12-30T13:51:28.093Z,14.70
2023-12-30T13:54:32.601Z,12.55
2023-12-30T13:57:37.577Z,15.52
2023-12-30T14:00:40.711Z,14.90
2023-12-30T14:03:46.001Z,16.33
2023-12-30T14:06:49.960Z,14.98
2023-12-30T14:09:55.373Z,16.17
2023-12-30T14:12:58.905Z,16.98
2023-12-30T14:16:02.290Z,17.20
2023-12-30T14:19:06.469Z,16.48
2023-12-30T14:22:09.646Z,17.98
2023-12-30T14:25:13.766Z,19.55
2023-12-30T14:28:17.255Z,21.13
2023-12-30T14:31:20.292Z,21.15
2023-12-30T14:34:23.573Z,19.85
2023-12-30T14:37:30.422Z,21.73
2023-12-30T14:40:35.034Z,20.70
2023-12-30T14:43:38.491Z,25.67
2023-12-30T14:46:42.067Z,26.17
2023-12-30T14:49:46.623Z,24.98
2023-12-30T14:52:51.347Z,26.95
2023-12-30T14:55:53.796Z,25.80
2023-12-30T14:58:55.946Z,25.77
2023-12-30T15:01:58.891Z,24.00
2023-12-30T15:08:21.137Z,32.63
2023-12-30T15:11:23.454Z,27.38
2023-12-30T15:14:26.077Z,31.27
2023-12-30T15:17:28.253Z,34.10
2023-12-30T15:20:30.437Z,29.73
2023-12-30T15:23:33.531Z,28.67
2023-12-30T15:26:35.676Z,29.55
2023-12-30T15:29:38.513Z,31.23
2023-12-30T15:32:41.868Z,29.95
2023-12-30T15:35:54.367Z,32.47
2023-12-30T15:38:58.093Z,34.60
2023-12-30T15:42:01.343Z,33.38
2023-12-30T15:48:14.615Z,38.08
2023-12-30T15:51:18.484Z,39.72
2023-12-30T15:54:27.053Z,35.22
2023-12-30T15:57:33.571Z,38.10
2023-12-30T16:00:36.858Z,37.28
2023-12-30T16:03:40.627Z,36.28
2023-12-30T16:06:44.293Z,38.45
2023-12-30T16:09:48.316Z,39.28
2023-12-30T16:12:51.232Z,38.28
2023-12-30T16:16:00.656Z,39.13
2023-12-30T16:19:04.201Z,41.80
2023-12-30T16:22:07.138Z,39.55
2023-12-30T16:25:12.378Z,40.53
2023-12-30T16:28:15.730Z,40.38
2023-12-30T16:31:18.729Z,40.58
2023-12-30T16:34:21.955Z,40.25
2023-12-30T16:37:25.402Z,45.53
2023-12-30T16:40:28.262Z,44.88
2023-12-30T16:43:34.061Z,40.85
2023-12-30T16:46:36.186Z,45.67
2023-12-30T16:49:38.295Z,44.80
2023-12-30T16:52:40.379Z,44.58
2023-12-30T16:55:42.652Z,44.35
2023-12-30T16:58:45.279Z,46.13
2023-12-30T17:01:47.665Z,45.63
2023-12-30T17:04:49.903Z,43.88
2023-12-30T17:07:55.459Z,45.65
2023-12-30T17:10:57.504Z,42.42
2023-12-30T17:13:59.678Z,43.13
2023-12-30T17:17:01.804Z,45.75
2023-12-30T17:20:04.383Z,45.67
2023-12-30T17:23:06.832Z,48.05
2023-12-30T17:26:08.881Z,49.40
2023-12-30T17:29:11.467Z,47.08
2023-12-30T17:32:13.717Z,48.08
2023-12-30T17:35:15.992Z,45.60
2023-12-30T17:38:18.308Z,46.35
2023-12-30T17:41:20.332Z,45.65
2023-12-30T17:44:22.365Z,47.42
2023-12-30T17:47:24.400Z,46.70
2023-12-30T17:50:26.533Z,47.50
2023-12-30T17:53:28.909Z,47.80
2023-12-30T17:56:33.974Z,46.15
2023-12-30T17:59:36.188Z,49.47
2023-12-30T18:02:38.514Z,50.30
2023-12-30T18:05:40.734Z,51.15
2023-12-30T18:08:42.911Z,47.28
2023-12-30T18:11:45.066Z,50.30
2023-12-30T18:14:47.139Z,53.55
2023-12-30T18:17:49.316Z,53.92
2023-12-30T18:20:51.670Z,52.10
2023-12-30T18:23:54.265Z,51.83
2023-12-30T18:29:58.606Z,53.90
2023-12-30T18:33:00.906Z,52.92
2023-12-30T18:36:04.055Z,50.35
2023-12-30T18:39:06.453Z,51.38
2023-12-30T18:45:14.186Z,50.38
2023-12-30T18:48:16.367Z,48.80
2023-12-30T18:51:18.536Z,50.38
2023-12-30T18:54:20.541Z,50.20
2023-12-30T18:57:22.894Z,51.55
2023-12-30T19:00:25.041Z,47.70
2023-12-30T19:03:28.560Z,48.53
2023-12-30T19:06:30.901Z,49.88
2023-12-30T19:09:33.115Z,47.40
2023-12-30T19:12:35.377Z,48.35
2023-12-30T19:15:38.104Z,47.25
2023-12-30T19:18:40.219Z,49.63
2023-12-30T19:21:42.334Z,48.85
2023-12-30T19:24:44.301Z,50.63
2023-12-30T19:27:49.033Z,54.88
2023-12-30T19:30:51.131Z,51.95
2023-12-30T19:33:53.526Z,53.30
2023-12-30T19:36:55.997Z,50.47
2023-12-30T19:39:58.045Z,51.42
2023-12-30T19:43:00.158Z,52.13
2023-12-30T19:46:02.417Z,56.03
2023-12-30T19:49:04.598Z,55.20
2023-12-30T19:52:07.634Z,65.25
2023-12-30T19:55:10.062Z,60.90
2023-12-30T19:58:12.305Z,60.83
2023-12-30T20:01:18.693Z,60.88
2023-12-30T20:04:21.172Z,56.72
2023-12-30T20:07:23.745Z,54.47
2023-12-30T20:13:28.129Z,56.83
2023-12-30T20:16:30.391Z,55.10
2023-12-30T20:19:33.669Z,55.05
2023-12-30T20:22:35.818Z,54.88
2023-12-30T20:25:38.036Z,51.05
2023-12-30T20:28:40.277Z,51.00
2023-12-30T20:31:42.258Z,51.60
2023-12-30T20:34:44.481Z,50.55
2023-12-30T20:37:49.311Z,49.72
2023-12-30T20:40:57.788Z,49.97
2023-12-30T20:44:00.548Z,50.95
2023-12-30T20:47:02.904Z,54.83
2023-12-30T20:50:05.316Z,51.38
2023-12-30T20:53:07.471Z,54.72
2023-12-30T20:56:09.717Z,51.35
2023-12-30T20:59:16.181Z,51.65
2023-12-30T21:02:18.271Z,51.42
2023-12-30T21:05:20.398Z,51.47
2023-12-30T21:08:22.912Z,51.95
2023-12-30T21:11:25.002Z,53.85
2023-12-30T21:14:27.307Z,56.42
2023-12-30T21:17:30.040Z,51.38
2023-12-30T21:20:32.131Z,56.65
2023-12-30T21:23:34.263Z,53.08
2023-12-30T21:26:36.303Z,53.00
2023-12-30T21:29:38.793Z,52.45
2023-12-30T21:32:40.794Z,51.83
2023-12-30T21:35:43.764Z,52.97
2023-12-30T21:38:46.423Z,54.22
2023-12-30T21:41:48.612Z,54.22
2023-12-30T21:44:50.841Z,51.17
2023-12-30T21:47:53.363Z,53.53
2023-12-30T21:50:55.409Z,51.40
2023-12-30T21:53:57.528Z,52.30
2023-12-30T21:57:01.657Z,51.25
2023-12-30T22:00:04.067Z,56.15
2023-12-30T22:03:07.036Z,54.55
2023-12-30T22:06:09.421Z,53.58
2023-12-30T22:09:11.575Z,53.55
2023-12-30T22:12:13.599Z,54.63
2023-12-30T22:15:16.024Z,53.30
2023-12-30T22:18:18.646Z,55.70
2023-12-30T22:21:20.873Z,54.72
2023-12-30T22:24:22.946Z,59.33
2023-12-30T22:27:25.065Z,58.25
2023-12-30T22:30:27.556Z,54.78
2023-12-30T22:33:30.136Z,56.22
2023-12-30T22:36:32.514Z,57.08
2023-12-30T22:39:34.501Z,57.30
2023-12-30T22:42:39.527Z,56.65
2023-12-30T22:45:41.550Z,55.83
2023-12-30T22:48:43.591Z,57.53
2023-12-30T22:51:49.874Z,57.10
2023-12-30T22:54:52.042Z,55.65
2023-12-30T22:57:54.312Z,55.33
2023-12-30T23:00:56.678Z,58.15
2023-12-30T23:03:58.908Z,59.67
2023-12-30T23:07:01.220Z,61.38
2023-12-30T23:10:03.793Z,60.63
2023-12-30T23:13:06.020Z,59.00
2023-12-30T23:16:08.693Z,60.22
2023-12-30T23:19:11.039Z,60.95
2023-12-30T23:22:13.658Z,59.70
2023-12-30T23:25:16.693Z,57.55
2023-12-30T23:31:20.757Z,60.47
2023-12-30T23:34:24.913Z,59.88
2023-12-30T23:37:32.741Z,59.20
2023-12-30T23:40:34.862Z,60.15
2023-12-30T23:43:36.911Z,61.72
2023-12-30T23:46:39.285Z,59.47
2023-12-30T23:49:43.787Z,60.92
2023-12-30T23:52:47.289Z,60.17
2023-12-30T23:55:50.513Z,59.83
2023-12-30T23:58:52.561Z,58.30
